Time;durP1;ratioP1;P1;durP2;ratioP2;P2;SDS_P1;SDS_P2;PMS_P1;PMS_P2;Temp;Humidity;BMP_temperature;BMP_pressure;BME280_temperature;BME280_humidity;BME280_pressure;Samples;Min_cycle;Max_cycle;Signal;HPM_P1;HPM_P2
2021/10/18 00:00:16;;;;;;;26.17;14.27;;;;;;;8.42;100.00;102005.19;4906732;28;20098;-73
2021/10/18 00:02:42;;;;;;;24.92;13.70;;;;;;;8.46;100.00;102012.75;4944154;28;20031;-73
2021/10/18 00:05:10;;;;;;;26.02;12.50;;;;;;;8.43;100.00;101997.25;4947065;28;20039;-74
2021/10/18 00:07:36;;;;;;;26.02;12.63;;;;;;;8.42;100.00;102005.19;4949162;28;20138;-72
2021/10/18 00:10:05;;;;;;;23.92;12.63;;;;;;;8.35;100.00;102002.97;4943489;28;20090;-74
2021/10/18 00:12:30;;;;;;;20.60;11.30;;;;;;;8.32;100.00;101995.31;4922234;28;20046;-73
2021/10/18 00:14:56;;;;;;;19.58;11.30;;;;;;;8.31;100.00;102001.50;4947020;28;20396;-73
2021/10/18 00:17:22;;;;;;;26.05;12.30;;;;;;;8.31;100.00;102005.91;4913657;28;20039;-75
2021/10/18 00:19:48;;;;;;;26.73;11.27;;;;;;;8.23;100.00;102000.31;4944700;28;20046;-73
2021/10/18 00:22:14;;;;;;;20.13;11.43;;;;;;;8.22;100.00;101998.66;4920293;28;20448;-72
2021/10/18 00:24:39;;;;;;;23.70;10.98;;;;;;;8.18;100.00;102000.63;4931930;28;20074;-75
2021/10/18 00:27:05;;;;;;;19.77;11.27;;;;;;;8.11;100.00;102000.19;4961433;28;20772;-72
2021/10/18 00:29:31;;;;;;;21.60;11.32;;;;;;;8.09;100.00;102007.28;4951884;28;20039;-75
2021/10/18 00:31:56;;;;;;;22.65;11.35;;;;;;;8.04;100.00;102006.72;4927456;28;20515;-75
2021/10/18 00:34:21;;;;;;;24.27;11.25;;;;;;;8.04;100.00;102011.13;4950213;28;20645;-74
2021/10/18 00:36:47;;;;;;;20.98;10.55;;;;;;;8.08;100.00;102010.84;4927385;28;20035;-75
2021/10/18 00:39:12;;;;;;;20.75;10.93;;;;;;;8.09;100.00;102020.34;4947497;28;20038;-73
2021/10/18 00:41:38;;;;;;;21.48;11.45;;;;;;;8.05;100.00;102015.44;4931877;28;20035;-73
2021/10/18 00:44:04;;;;;;;20.58;11.52;;;;;;;8.10;100.00;102023.78;4948334;28;20134;-73
2021/10/18 00:46:31;;;;;;;19.05;10.55;;;;;;;8.07;100.00;102030.06;4954587;28;20038;-74
2021/10/18 00:48:56;;;;;;;27.55;10.93;;;;;;;8.10;100.00;102027.25;4987547;28;20042;-74
2021/10/18 00:51:23;;;;;;;23.08;11.35;;;;;;;8.10;100.00;102029.03;4970531;28;20039;-75
2021/10/18 00:53:51;;;;;;;21.10;10.75;;;;;;;8.19;100.00;102025.81;4949662;28;20258;-73
2021/10/18 00:56:18;;;;;;;22.63;11.13;;;;;;;8.19;100.00;102023.19;4934767;28;20038;-73
2021/10/18 00:58:44;;;;;;;23.63;11.02;;;;;;;8.19;100.00;102031.03;4946897;28;20041;-73
2021/10/18 01:01:11;;;;;;;22.88;10.65;;;;;;;8.13;100.00;102028.84;4957183;28;20704;-73
2021/10/18 01:03:37;;;;;;;28.17;11.02;;;;;;;8.23;100.00;102023.84;4932193;29;20046;-74
2021/10/18 01:06:03;;;;;;;20.13;10.50;;;;;;;8.15;100.00;102030.41;4931799;29;20437;-73
2021/10/18 01:08:28;;;;;;;24.15;11.02;;;;;;;8.11;100.00;102021.09;4916183;29;20066;-76
2021/10/18 01:10:54;;;;;;;24.42;11.43;;;;;;;8.07;100.00;102018.78;4940935;28;20114;-74
2021/10/18 01:13:20;;;;;;;21.65;11.27;;;;;;;8.05;100.00;102015.44;4950264;28;20818;-72
2021/10/18 01:15:46;;;;;;;23.27;11.38;;;;;;;8.01;100.00;102022.63;4931932;28;20038;-74
2021/10/18 01:18:14;;;;;;;23.63;10.82;;;;;;;8.02;100.00;102015.63;4967394;28;20110;-74
2021/10/18 01:20:41;;;;;;;21.88;11.07;;;;;;;7.99;100.00;102016.66;4924671;28;20051;-74
2021/10/18 01:23:11;;;;;;;18.88;10.73;;;;;;;7.94;100.00;102014.31;4955612;28;20058;-74
2021/10/18 01:25:37;;;;;;;24.20;11.07;;;;;;;8.05;100.00;102015.44;4932090;28;20053;-73
2021/10/18 01:28:04;;;;;;;18.55;10.05;;;;;;;8.01;100.00;102013.97;4931765;28;20043;-73
2021/10/18 01:30:30;;;;;;;20.33;11.27;;;;;;;7.99;100.00;102014.06;4914191;29;20131;-74
2021/10/18 01:32:57;;;;;;;21.10;10.55;;;;;;;7.99;100.00;102016.66;4918716;28;20157;-73
2021/10/18 01:35:24;;;;;;;20.05;11.15;;;;;;;8.01;100.00;102027.84;4934158;28;20049;-73
2021/10/18 01:37:50;;;;;;;16.85;10.55;;;;;;;8.04;100.00;102032.03;4918516;28;20559;-72
2021/10/18 01:40:19;;;;;;;18.85;10.13;;;;;;;8.05;100.00;102031.94;4942144;29;20043;-72
2021/10/18 01:42:45;;;;;;;21.52;10.35;;;;;;;8.02;100.00;102024.28;4942946;28;20114;-74
2021/10/18 01:45:14;;;;;;;19.77;10.07;;;;;;;8.07;100.00;102030.06;4948072;28;20034;-73
2021/10/18 01:47:40;;;;;;;19.60;10.45;;;;;;;8.10;100.00;102035.09;4965657;28;20161;-74
2021/10/18 01:50:17;;;;;;;21.50;9.98;;;;;;;8.11;100.00;102033.31;4963037;28;20039;-74
2021/10/18 01:52:43;;;;;;;19.10;10.45;;;;;;;8.16;100.00;102031.25;4965131;28;20093;-73
2021/10/18 01:55:09;;;;;;;18.00;10.05;;;;;;;8.16;100.00;102029.47;4965719;28;20050;-73
2021/10/18 01:57:35;;;;;;;20.70;9.73;;;;;;;8.17;100.00;102030.31;4933780;28;20038;-74
2021/10/18 02:00:02;;;;;;;19.58;10.80;;;;;;;8.21;100.00;102023.09;4948616;28;20042;-73
2021/10/18 02:02:38;;;;;;;16.63;9.68;;;;;;;8.22;100.00;102011.72;4945395;28;20038;-75
2021/10/18 02:05:04;;;;;;;20.05;10.52;;;;;;;8.21;100.00;102008.25;4933117;28;20820;-73
2021/10/18 02:07:30;;;;;;;22.33;10.80;;;;;;;8.14;100.00;102010.44;4958130;28;20035;-75
2021/10/18 02:09:57;;;;;;;20.52;11.45;;;;;;;8.08;100.00;102010.84;4947562;28;20411;-74
2021/10/18 02:12:23;;;;;;;24.08;11.20;;;;;;;7.96;100.00;102004.63;4925434;28;20034;-74
2021/10/18 02:14:49;;;;;;;30.80;12.02;;;;;;;7.85;100.00;102004.47;4965747;28;20038;-73
2021/10/18 02:17:15;;;;;;;18.92;11.30;;;;;;;7.79;100.00;102004.88;4972108;28;20042;-73
2021/10/18 02:19:42;;;;;;;24.90;12.60;;;;;;;7.66;100.00;102001.34;4965634;28;20175;-74
2021/10/18 02:22:08;;;;;;;21.27;11.57;;;;;;;7.55;100.00;101996.78;4949506;28;20476;-72
2021/10/18 02:24:34;;;;;;;22.48;11.95;;;;;;;7.52;100.00;102010.06;4947020;28;20045;-76
2021/10/18 02:27:00;;;;;;;19.95;12.07;;;;;;;7.41;100.00;101995.88;4946827;28;20037;-75
2021/10/18 02:29:25;;;;;;;24.88;12.35;;;;;;;7.34;100.00;102001.59;4949031;28;20034;-73
2021/10/18 02:31:51;;;;;;;22.42;12.50;;;;;;;7.29;100.00;102004.50;4945109;28;20189;-72
2021/10/18 02:34:16;;;;;;;25.17;11.88;;;;;;;7.24;100.00;101993.47;4963538;28;20053;-73
2021/10/18 02:36:43;;;;;;;24.67;11.90;;;;;;;7.24;100.00;101990.03;4961955;28;20404;-75
2021/10/18 02:39:08;;;;;;;22.35;12.27;;;;;;;7.19;100.00;101988.53;4935933;29;20046;-73
2021/10/18 02:41:34;;;;;;;19.45;11.80;;;;;;;7.09;100.00;101997.03;4918348;29;20035;-73
2021/10/18 02:43:59;;;;;;;22.85;12.63;;;;;;;7.02;100.00;101997.38;4933798;28;20042;-75
2021/10/18 02:46:25;;;;;;;26.55;11.85;;;;;;;6.92;100.00;102000.66;4947329;28;20611;-74
2021/10/18 02:48:50;;;;;;;24.08;12.77;;;;;;;6.97;100.00;102007.28;4947916;28;20035;-74
2021/10/18 02:51:16;;;;;;;21.50;13.18;;;;;;;6.99;100.00;102001.97;4965974;28;20038;-73
2021/10/18 02:53:41;;;;;;;28.90;12.65;;;;;;;7.00;100.00;102003.63;4956595;28;20039;-74
2021/10/18 02:56:08;;;;;;;22.20;12.88;;;;;;;6.98;100.00;102000.28;4928419;28;20094;-73
2021/10/18 02:58:34;;;;;;;22.38;12.65;;;;;;;6.98;100.00;101998.50;4954853;28;20039;-73
2021/10/18 03:00:59;;;;;;;25.27;13.27;;;;;;;6.99;100.00;101999.38;4925210;28;20066;-73
2021/10/18 03:03:25;;;;;;;26.05;13.05;;;;;;;7.06;100.00;102002.44;4950627;28;20070;-73
2021/10/18 03:05:50;;;;;;;23.30;12.40;;;;;;;7.09;100.00;101997.88;4958610;28;20043;-73
2021/10/18 03:08:16;;;;;;;27.08;12.85;;;;;;;7.13;100.00;101998.53;4950995;28;20157;-73
2021/10/18 03:10:42;;;;;;;23.83;13.20;;;;;;;7.19;100.00;102005.97;4928463;28;20047;-74
2021/10/18 03:13:10;;;;;;;28.58;13.57;;;;;;;7.26;100.00;101999.44;4950807;28;20113;-74
2021/10/18 03:15:36;;;;;;;30.17;14.18;;;;;;;7.28;100.00;102009.81;4966584;28;20137;-75
2021/10/18 03:18:02;;;;;;;26.35;13.05;;;;;;;7.26;100.00;102004.66;4918855;28;20134;-74
2021/10/18 03:20:27;;;;;;;21.67;13.57;;;;;;;7.27;100.00;102014.19;4948889;28;20113;-73
2021/10/18 03:22:53;;;;;;;27.77;14.32;;;;;;;7.29;100.00;102006.25;4968086;28;20466;-74
2021/10/18 03:25:20;;;;;;;23.67;12.98;;;;;;;7.33;100.00;102011.19;4947890;28;20038;-73
2021/10/18 03:27:48;;;;;;;29.02;13.48;;;;;;;7.35;100.00;102011.94;4949239;28;20396;-73
2021/10/18 03:30:14;;;;;;;21.60;12.57;;;;;;;7.34;100.00;102015.47;4932753;28;20538;-74
2021/10/18 03:32:39;;;;;;;23.63;13.85;;;;;;;7.34;100.00;102012.84;4966891;28;20118;-74
2021/10/18 03:35:06;;;;;;;27.85;14.43;;;;;;;7.38;100.00;102016.13;4949515;28;20058;-74
2021/10/18 03:37:32;;;;;;;27.95;13.57;;;;;;;7.34;100.00;102018.06;4931583;28;20171;-74
2021/10/18 03:39:58;;;;;;;22.63;13.05;;;;;;;7.36;100.00;102026.66;4923498;28;20066;-74
2021/10/18 03:42:24;;;;;;;21.83;13.60;;;;;;;7.39;100.00;102028.25;4915532;29;20031;-74
2021/10/18 03:44:50;;;;;;;23.70;12.63;;;;;;;7.35;100.00;102019.75;4917500;29;20047;-74
2021/10/18 03:47:15;;;;;;;22.13;12.77;;;;;;;7.38;100.00;102024.81;4949873;28;20022;-73
2021/10/18 03:49:41;;;;;;;22.35;12.52;;;;;;;7.39;100.00;102023.03;4947470;28;20050;-73
2021/10/18 03:52:07;;;;;;;22.77;12.50;;;;;;;7.34;100.00;102025.06;4934508;29;20042;-74
2021/10/18 03:54:33;;;;;;;22.15;12.40;;;;;;;7.32;100.00;102026.94;4953212;28;20062;-75
2021/10/18 03:56:58;;;;;;;25.48;13.50;;;;;;;7.34;100.00;102035.50;4969718;28;20039;-73
2021/10/18 03:59:24;;;;;;;26.95;13.80;;;;;;;7.34;100.00;102020.69;4952931;28;20031;-74
2021/10/18 04:01:50;;;;;;;25.02;12.43;;;;;;;7.38;100.00;102031.78;4969902;28;20069;-74
2021/10/18 04:04:16;;;;;;;23.83;12.70;;;;;;;7.39;100.00;102020.41;4970359;28;20058;-74
2021/10/18 04:06:42;;;;;;;22.98;11.82;;;;;;;7.45;100.00;102032.25;4959241;28;20085;-73
2021/10/18 04:09:08;;;;;;;24.98;12.38;;;;;;;7.45;100.00;102029.66;4954731;28;20042;-73
2021/10/18 04:11:39;;;;;;;22.13;12.18;;;;;;;7.43;100.00;102023.69;4942168;29;20035;-73
2021/10/18 04:14:06;;;;;;;24.13;12.90;;;;;;;7.46;100.00;102024.34;4918753;29;20061;-74
2021/10/18 04:16:33;;;;;;;21.05;12.85;;;;;;;7.44;100.00;102022.72;4934234;28;20042;-75
2021/10/18 04:18:58;;;;;;;22.15;11.57;;;;;;;7.44;100.00;102033.19;4945815;28;20082;-74
2021/10/18 04:21:24;;;;;;;23.10;12.63;;;;;;;7.44;100.00;102033.19;4954576;28;20579;-74
2021/10/18 04:23:49;;;;;;;20.65;11.30;;;;;;;7.43;100.00;102024.50;4951491;28;20642;-75
2021/10/18 04:26:15;;;;;;;19.95;11.02;;;;;;;7.47;100.00;102038.22;4937218;28;20113;-75
2021/10/18 04:28:40;;;;;;;24.55;11.27;;;;;;;7.47;100.00;102028.59;4950417;28;20079;-75
2021/10/18 04:31:06;;;;;;;20.48;11.88;;;;;;;7.44;100.00;102041.00;4961204;28;20393;-74
2021/10/18 04:33:31;;;;;;;19.38;10.82;;;;;;;7.49;100.00;102042.41;4936064;28;20485;-74
2021/10/18 04:35:57;;;;;;;21.42;11.32;;;;;;;7.51;100.00;102034.47;4952596;28;20519;-73
2021/10/18 04:38:22;;;;;;;23.13;11.45;;;;;;;7.50;100.00;102040.66;4957100;28;20042;-73
2021/10/18 04:40:48;;;;;;;18.67;11.00;;;;;;;7.46;100.00;102037.38;4966983;28;20113;-74
2021/10/18 04:43:13;;;;;;;21.85;11.43;;;;;;;7.48;100.00;102032.91;4952550;28;20473;-74
2021/10/18 04:45:39;;;;;;;19.17;10.90;;;;;;;7.44;100.00;102036.66;4952199;28;20108;-74
2021/10/18 04:48:04;;;;;;;19.40;10.55;;;;;;;7.40;100.00;102036.00;4969783;28;20046;-73
2021/10/18 04:50:30;;;;;;;20.20;11.23;;;;;;;7.41;100.00;102036.81;4969336;28;20027;-74
2021/10/18 04:52:55;;;;;;;23.45;11.57;;;;;;;7.36;100.00;102036.25;4952974;28;20038;-74
2021/10/18 04:55:21;;;;;;;21.75;12.00;;;;;;;7.35;100.00;102030.22;4951813;28;20042;-73
2021/10/18 04:57:52;;;;;;;21.52;11.18;;;;;;;7.35;100.00;102045.03;4969288;28;20042;-73
2021/10/18 05:00:17;;;;;;;19.00;11.73;;;;;;;7.33;100.00;102037.28;4941007;28;20042;-73
2021/10/18 05:02:43;;;;;;;22.23;11.95;;;;;;;7.40;100.00;102041.22;4938298;28;20718;-73
2021/10/18 05:05:09;;;;;;;23.92;12.13;;;;;;;7.49;100.00;102046.78;4970459;28;20026;-72
2021/10/18 05:07:36;;;;;;;17.92;11.23;;;;;;;7.48;100.00;102058.16;4968519;28;20039;-75
2021/10/18 05:10:01;;;;;;;20.00;11.23;;;;;;;7.41;100.00;102055.09;4920593;28;20063;-73
2021/10/18 05:12:27;;;;;;;22.63;11.90;;;;;;;7.40;100.00;102062.09;4920272;29;20032;-74
2021/10/18 05:14:52;;;;;;;21.90;11.65;;;;;;;7.39;100.00;102052.56;4950674;29;20069;-75
2021/10/18 05:17:17;;;;;;;18.80;11.40;;;;;;;7.39;100.00;102055.19;4956900;28;20055;-74
2021/10/18 05:19:43;;;;;;;17.85;11.52;;;;;;;7.37;100.00;102059.66;4950041;28;20522;-74
2021/10/18 05:22:08;;;;;;;20.98;11.40;;;;;;;7.39;100.00;102060.41;4952203;28;20719;-74
2021/10/18 05:24:34;;;;;;;18.83;11.30;;;;;;;7.36;100.00;102055.34;4969576;28;20475;-73
2021/10/18 05:26:59;;;;;;;22.75;11.32;;;;;;;7.34;100.00;102054.63;4968801;28;20045;-75
2021/10/18 05:29:26;;;;;;;22.08;11.82;;;;;;;7.33;100.00;102059.97;4967525;28;20041;-73
2021/10/18 05:31:51;;;;;;;21.05;11.57;;;;;;;7.35;100.00;102069.38;4969418;28;20551;-73
2021/10/18 05:34:17;;;;;;;19.92;10.90;;;;;;;7.36;100.00;102059.75;4942493;28;20039;-73
2021/10/18 05:36:43;;;;;;;22.83;11.48;;;;;;;7.39;100.00;102070.84;4919675;28;20050;-72
2021/10/18 05:39:08;;;;;;;18.67;11.40;;;;;;;7.44;100.00;102064.50;4969357;28;20035;-74
2021/10/18 05:41:34;;;;;;;23.08;12.50;;;;;;;7.47;100.00;102066.94;4951905;28;20066;-73
2021/10/18 05:43:59;;;;;;;19.52;11.27;;;;;;;7.44;100.00;102061.88;4969601;28;20370;-72
2021/10/18 05:46:25;;;;;;;22.25;12.05;;;;;;;7.48;100.00;102069.47;4950605;28;20039;-77
2021/10/18 05:48:50;;;;;;;19.55;11.15;;;;;;;7.56;100.00;102069.00;4951265;28;20038;-74
2021/10/18 05:51:16;;;;;;;21.30;11.57;;;;;;;7.55;100.00;102062.06;4935934;28;20842;-73
2021/10/18 05:53:41;;;;;;;19.20;11.57;;;;;;;7.55;100.00;102062.94;4968015;28;20035;-73
2021/10/18 05:56:07;;;;;;;27.27;12.73;;;;;;;7.59;100.00;102068.78;4934832;28;20982;-73
2021/10/18 05:58:32;;;;;;;22.83;12.10;;;;;;;7.62;100.00;102079.03;4951484;28;20026;-73
2021/10/18 06:00:58;;;;;;;20.17;12.27;;;;;;;7.66;100.00;102071.88;4962064;28;20039;-73
2021/10/18 06:03:24;;;;;;;22.00;11.85;;;;;;;7.66;100.00;102072.69;4918215;28;20074;-74
2021/10/18 06:05:52;;;;;;;17.90;11.73;;;;;;;7.67;100.00;102077.00;4955207;28;20142;-73
2021/10/18 06:08:17;;;;;;;25.70;12.10;;;;;;;7.72;100.00;102081.91;4951083;28;20031;-73
2021/10/18 06:10:43;;;;;;;19.92;11.63;;;;;;;7.73;100.00;102078.38;4951179;28;20387;-74
2021/10/18 06:13:10;;;;;;;18.63;11.32;;;;;;;7.74;100.00;102087.88;4950302;28;20399;-73
2021/10/18 06:15:36;;;;;;;22.60;11.70;;;;;;;7.78;100.00;102084.19;4956260;28;20065;-73
2021/10/18 06:18:16;;;;;;;20.27;11.70;;;;;;;7.78;100.00;102087.63;4955673;28;20042;-73
2021/10/18 06:20:44;;;;;;;18.02;11.07;;;;;;;7.82;100.00;102088.28;4965864;28;20026;-73
2021/10/18 06:23:12;;;;;;;22.77;11.73;;;;;;;7.84;100.00;102094.25;4944290;28;20036;-74
2021/10/18 06:25:40;;;;;;;22.95;11.55;;;;;;;7.89;100.00;102096.53;4931845;28;20122;-75
2021/10/18 06:28:07;;;;;;;18.77;11.07;;;;;;;7.91;100.00;102094.69;4931867;29;20485;-75
2021/10/18 06:30:33;;;;;;;19.50;11.57;;;;;;;7.91;100.00;102087.69;4947204;28;20045;-75
2021/10/18 06:32:59;;;;;;;19.27;10.88;;;;;;;7.99;100.00;102098.50;4962182;28;20038;-75
2021/10/18 06:35:24;;;;;;;17.92;11.15;;;;;;;8.02;100.00;102099.22;4965094;28;20038;-73
2021/10/18 06:37:50;;;;;;;19.08;11.35;;;;;;;8.04;100.00;102103.41;4926251;28;20716;-73
2021/10/18 06:40:16;;;;;;;22.80;11.95;;;;;;;8.06;100.00;102108.56;4947278;28;20582;-73
2021/10/18 06:42:42;;;;;;;17.33;11.23;;;;;;;8.05;100.00;102104.28;4947935;28;20658;-74
2021/10/18 06:45:09;;;;;;;21.30;11.48;;;;;;;8.11;100.00;102123.00;4946831;29;20571;-77
2021/10/18 06:47:34;;;;;;;18.55;11.77;;;;;;;8.13;100.00;102105.44;4930516;29;20132;-72
2021/10/18 06:50:00;;;;;;;19.42;11.02;;;;;;;8.18;100.00;102111.25;4942612;28;20034;-74
2021/10/18 06:52:30;;;;;;;18.95;10.65;;;;;;;8.24;100.00;102123.06;4967957;28;20043;-75
2021/10/18 06:54:55;;;;;;;21.90;10.65;;;;;;;8.28;100.00;102114.09;4926051;28;20039;-75
2021/10/18 06:57:21;;;;;;;17.95;11.13;;;;;;;8.37;100.00;102123.13;4927078;28;20038;-74
2021/10/18 06:59:46;;;;;;;22.42;11.35;;;;;;;8.45;100.00;102120.06;4965404;28;20066;-73
2021/10/18 07:02:12;;;;;;;18.63;11.68;;;;;;;8.62;100.00;102130.25;4963003;28;20027;-75
2021/10/18 07:04:39;;;;;;;17.05;10.70;;;;;;;8.74;100.00;102124.25;4951970;28;20038;-74
2021/10/18 07:07:05;;;;;;;15.88;10.23;;;;;;;8.87;100.00;102133.88;4942445;28;20085;-75
2021/10/18 07:09:31;;;;;;;18.20;11.10;;;;;;;8.93;100.00;102139.56;4934460;28;20549;-72
2021/10/18 07:11:57;;;;;;;17.17;11.27;;;;;;;9.00;100.00;102147.00;4937911;28;20106;-75
2021/10/18 07:14:24;;;;;;;17.48;11.73;;;;;;;9.03;100.00;102134.56;4985752;28;20066;-75
2021/10/18 07:16:50;;;;;;;16.75;10.27;;;;;;;9.18;100.00;102142.34;4935692;28;20030;-75
2021/10/18 07:19:17;;;;;;;16.60;11.18;;;;;;;9.35;100.00;102149.88;4928104;28;20043;-73
2021/10/18 07:21:44;;;;;;;16.55;9.35;;;;;;;9.37;100.00;102147.16;4968717;28;20071;-74
2021/10/18 07:24:09;;;;;;;15.57;9.63;;;;;;;9.34;100.00;102135.94;4964577;28;20034;-75
2021/10/18 07:26:35;;;;;;;16.05;9.55;;;;;;;9.41;100.00;102146.84;4951262;28;20443;-75
2021/10/18 07:29:00;;;;;;;14.75;9.98;;;;;;;9.41;100.00;102148.63;4954408;28;20042;-70
2021/10/18 07:31:26;;;;;;;17.65;9.63;;;;;;;9.37;100.00;102153.22;4931691;28;20054;-74
2021/10/18 07:33:56;;;;;;;20.67;9.75;;;;;;;9.34;100.00;102149.06;4968681;28;20042;-77
2021/10/18 07:36:26;;;;;;;17.08;9.63;;;;;;;9.35;100.00;102155.94;4985756;28;20555;-73
2021/10/18 07:38:52;;;;;;;16.83;9.73;;;;;;;9.42;100.00;102155.53;4962213;28;20050;-74
2021/10/18 07:41:21;;;;;;;16.52;9.50;;;;;;;9.52;100.00;102156.59;4962841;28;20036;-72
2021/10/18 07:43:47;;;;;;;16.13;9.55;;;;;;;9.62;100.00;102160.25;4935172;29;20042;-75
2021/10/18 07:46:15;;;;;;;14.32;8.65;;;;;;;9.71;100.00;102167.47;4952595;28;20034;-74
2021/10/18 07:48:40;;;;;;;18.08;9.35;;;;;;;9.82;100.00;102164.09;4920923;28;20034;-75
2021/10/18 07:51:06;;;;;;;13.02;8.32;;;;;;;9.86;100.00;102159.50;4936421;28;20041;-71
2021/10/18 07:53:31;;;;;;;14.38;8.82;;;;;;;9.95;100.00;102164.09;4921673;28;20057;-72
2021/10/18 07:55:57;;;;;;;12.68;8.23;;;;;;;10.03;100.00;102167.00;4952028;28;20031;-75
2021/10/18 07:58:22;;;;;;;13.23;7.97;;;;;;;10.04;100.00;102165.22;4953539;28;20058;-74
2021/10/18 08:00:48;;;;;;;12.90;8.43;;;;;;;10.08;100.00;102161.47;4936053;28;20060;-74
2021/10/18 08:03:13;;;;;;;13.35;8.60;;;;;;;10.22;100.00;102173.56;4953239;28;20142;-75
2021/10/18 08:05:39;;;;;;;13.95;8.85;;;;;;;10.28;100.00;102176.63;4966547;28;20844;-71
2021/10/18 08:08:05;;;;;;;14.85;8.35;;;;;;;10.37;99.44;102180.38;4961285;28;20585;-76
2021/10/18 08:10:31;;;;;;;16.48;8.27;;;;;;;10.46;100.00;102182.34;4923537;28;20121;-74
2021/10/18 08:12:58;;;;;;;14.35;8.43;;;;;;;10.52;99.49;102186.31;4968832;28;20693;-74
2021/10/18 08:15:25;;;;;;;20.33;8.95;;;;;;;10.64;97.91;102179.31;4918133;29;20038;-75
2021/10/18 08:17:51;;;;;;;15.23;8.65;;;;;;;10.68;97.36;102180.78;4928568;28;20060;-74
2021/10/18 08:20:17;;;;;;;16.00;8.48;;;;;;;10.77;98.84;102189.78;4935026;29;20449;-76
2021/10/18 08:22:43;;;;;;;14.45;8.43;;;;;;;10.86;100.00;102181.22;4918664;29;20062;-75
2021/10/18 08:25:09;;;;;;;11.75;8.00;;;;;;;11.00;100.00;102190.69;4918268;29;20457;-75
2021/10/18 08:27:35;;;;;;;19.20;8.10;;;;;;;11.05;100.00;102192.03;4941177;28;20050;-75
2021/10/18 08:30:00;;;;;;;17.05;7.90;;;;;;;11.09;100.00;102190.88;4933651;29;20037;-75
2021/10/18 08:32:26;;;;;;;11.27;7.13;;;;;;;11.19;100.00;102195.41;4943053;28;20039;-72
2021/10/18 08:34:51;;;;;;;13.05;6.70;;;;;;;11.27;100.00;102191.25;4958783;28;20575;-75
2021/10/18 08:37:17;;;;;;;12.55;5.47;;;;;;;11.29;100.00;102184.09;4951529;28;20041;-76
2021/10/18 08:42:30;;;;;;;8.77;5.22;;;;;;;11.41;100.00;102194.63;4951167;28;20114;-73
2021/10/18 08:44:55;;;;;;;7.72;4.93;;;;;;;11.42;100.00;102193.69;4954922;28;20035;-76
2021/10/18 08:47:26;;;;;;;12.90;5.35;;;;;;;11.43;100.00;102196.22;4935614;29;20043;-74
2021/10/18 08:49:52;;;;;;;8.10;5.07;;;;;;;11.47;100.00;102200.28;4917119;29;20043;-74
2021/10/18 08:52:20;;;;;;;14.77;5.22;;;;;;;11.47;100.00;102200.28;4945314;28;20489;-75
2021/10/18 08:54:45;;;;;;;8.82;5.00;;;;;;;11.48;100.00;102201.09;4917646;29;20039;-75
2021/10/18 08:57:11;;;;;;;13.35;5.28;;;;;;;11.45;100.00;102193.44;4927946;28;20172;-76
2021/10/18 08:59:37;;;;;;;6.05;4.85;;;;;;;11.50;100.00;102194.75;4949296;28;20077;-74
2021/10/18 09:02:03;;;;;;;8.82;4.68;;;;;;;11.53;100.00;102203.38;4948811;28;20062;-75
2021/10/18 09:04:37;;;;;;;9.32;4.72;;;;;;;11.49;100.00;102202.78;4948790;28;20918;-75
2021/10/18 09:07:12;;;;;;;9.13;5.13;;;;;;;11.54;100.00;102205.06;4928023;28;20039;-73
2021/10/18 09:09:50;;;;;;;8.23;5.10;;;;;;;11.53;100.00;102206.00;4926859;29;20138;-76
2021/10/18 09:12:39;;;;;;;8.45;4.43;;;;;;;11.56;100.00;102211.84;4918201;29;20050;-75
2021/10/18 09:15:25;;;;;;;11.52;4.70;;;;;;;11.62;100.00;102207.91;4943550;28;20081;-75
2021/10/18 09:17:55;;;;;;;8.93;4.60;;;;;;;11.63;100.00;102209.59;4935262;28;20651;-75
2021/10/18 09:20:29;;;;;;;7.97;4.82;;;;;;;11.64;100.00;102213.91;4934521;28;20042;-74
2021/10/18 09:23:15;;;;;;;12.75;4.68;;;;;;;11.64;100.00;102217.38;4929513;29;20576;-74
2021/10/18 09:25:41;;;;;;;7.63;4.70;;;;;;;11.65;100.00;102213.78;4916314;28;20113;-74
2021/10/18 09:28:11;;;;;;;7.72;4.65;;;;;;;11.73;100.00;102217.63;4933047;29;20074;-73
2021/10/18 09:30:40;;;;;;;7.00;4.63;;;;;;;11.76;100.00;102210.34;4945109;28;20066;-75
2021/10/18 09:33:40;;;;;;;7.00;4.35;;;;;;;11.85;100.00;102220.16;4943554;28;20560;-75
2021/10/18 09:36:11;;;;;;;10.27;4.82;;;;;;;11.89;98.42;102215.50;4950258;28;20400;-73
2021/10/18 09:38:37;;;;;;;8.15;4.45;;;;;;;11.92;96.76;102219.69;4945417;29;20110;-74
2021/10/18 09:41:03;;;;;;;8.55;4.45;;;;;;;11.94;98.34;102226.53;4916831;29;20484;-75
2021/10/18 10:53:20;;;;;;;8.23;4.30;;;;;;;13.22;88.60;102216.25;4951111;28;20074;-75
2021/10/18 10:55:47;;;;;;;8.20;4.55;;;;;;;13.22;83.82;102206.56;4965465;28;20042;-74
2021/10/18 10:58:35;;;;;;;8.90;4.07;;;;;;;13.24;82.73;102195.88;4953876;28;20097;-75
2021/10/18 11:01:03;;;;;;;9.48;4.95;;;;;;;13.31;82.54;102204.97;4933514;28;20058;-72
2021/10/18 11:03:41;;;;;;;8.20;4.85;;;;;;;13.31;81.04;102207.63;4935030;28;20038;-74
2021/10/18 11:06:07;;;;;;;10.48;5.03;;;;;;;13.34;81.04;102198.63;4938327;28;20089;-73
2021/10/18 11:08:46;;;;;;;6.90;4.70;;;;;;;13.46;81.69;102205.50;4922383;28;20078;-72
2021/10/18 11:11:23;;;;;;;9.25;4.70;;;;;;;13.50;79.84;102206.91;4937837;28;20035;-77
2021/10/18 11:13:55;;;;;;;8.32;4.97;;;;;;;13.52;79.91;102198.88;4926954;29;20516;-76
2021/10/18 11:16:27;;;;;;;9.45;4.70;;;;;;;13.55;80.94;102199.44;4934836;29;20039;-74
2021/10/18 11:18:56;;;;;;;13.68;5.00;;;;;;;13.61;81.16;102204.19;4937454;28;20102;-77
2021/10/18 11:21:28;;;;;;;10.88;4.60;;;;;;;13.69;85.51;102211.44;4954241;28;20465;-75
2021/10/18 11:24:12;;;;;;;8.70;5.15;;;;;;;13.76;81.74;102209.13;4972156;28;20043;-75
2021/10/18 11:26:40;;;;;;;9.90;5.80;;;;;;;13.76;78.29;102204.69;4976206;28;20038;-74
2021/10/18 11:29:08;;;;;;;13.13;5.90;;;;;;;13.77;79.07;102198.44;4956594;28;20403;-72
2021/10/18 11:31:35;;;;;;;12.77;5.40;;;;;;;13.75;78.56;102205.66;4935830;28;20034;-73
2021/10/18 11:34:08;;;;;;;8.90;5.35;;;;;;;13.66;77.90;102208.25;4966166;28;20031;-73
2021/10/18 11:36:36;;;;;;;7.28;5.30;;;;;;;13.62;80.62;102203.22;4935154;28;20042;-75
2021/10/18 11:39:06;;;;;;;11.43;5.30;;;;;;;13.56;85.95;102205.53;4937744;28;20049;-74
2021/10/18 11:41:32;;;;;;;8.70;5.20;;;;;;;13.60;82.87;102204.34;4954067;28;20049;-71
2021/10/18 11:43:57;;;;;;;11.15;6.00;;;;;;;13.57;87.10;102205.41;4937991;28;20038;-76
2021/10/18 11:46:23;;;;;;;9.23;5.32;;;;;;;13.50;84.59;102191.09;4953397;28;20086;-75
2021/10/18 11:48:48;;;;;;;13.02;5.60;;;;;;;13.46;82.91;102189.69;4937527;28;20145;-76
2021/10/18 11:51:14;;;;;;;11.02;5.47;;;;;;;13.37;79.81;102186.03;4934238;28;20400;-75
2021/10/18 11:53:41;;;;;;;11.75;5.13;;;;;;;13.34;81.49;102188.94;4938711;28;20078;-74
2021/10/18 11:56:09;;;;;;;9.00;5.28;;;;;;;13.36;80.30;102188.81;4936703;28;20038;-73
2021/10/18 11:58:38;;;;;;;11.82;5.60;;;;;;;13.36;79.21;102187.00;4971577;28;20081;-76
2021/10/18 12:01:14;;;;;;;13.13;5.70;;;;;;;13.36;80.92;102173.00;4955077;28;20080;-72
2021/10/18 12:03:39;;;;;;;8.77;5.03;;;;;;;13.40;78.96;102179.66;4937752;28;20043;-74
2021/10/18 12:06:10;;;;;;;11.25;5.70;;;;;;;13.47;81.48;102182.59;4923411;28;20101;-75
2021/10/18 12:08:37;;;;;;;11.35;5.80;;;;;;;13.46;79.32;102176.50;4967990;28;20112;-77
2021/10/18 12:11:05;;;;;;;9.10;5.32;;;;;;;13.46;80.63;102181.78;4964502;28;20425;-76
2021/10/18 12:13:32;;;;;;;11.75;5.47;;;;;;;13.49;80.21;102176.25;4938115;28;20046;-75
2021/10/18 12:15:58;;;;;;;8.05;5.53;;;;;;;13.47;79.63;102180.81;4952901;28;20109;-78
2021/10/18 12:18:46;;;;;;;11.90;5.60;;;;;;;13.40;80.75;102177.03;4952027;28;20034;-77
2021/10/18 12:21:26;;;;;;;12.40;5.72;;;;;;;13.32;81.12;102177.69;4951980;28;20031;-76
2021/10/18 12:23:51;;;;;;;9.98;5.70;;;;;;;13.25;81.91;102172.03;4937568;28;20292;-75